Lewiston, Idaho
Current Conditions -  °F | °C
As of 6:56 AM on Thursday 30 Oct 2014 (Local Time) from KLWS Reporting Station
Overcast Overcast  
Wind Chill: 51°   Ceiling: 10000
Heat Index: 51°   Visibility: 10mi
Dew Point: 45°   Wind: 6mph
Humidity: 80%   Direction: 90°E
Pressure: 30.1"   Gusts: NA
Location:  46.42°N, 117.01°W
Report Text: KLWS 301356Z 09005KT 10SM OVC100 11/07 A3010 RMK AO2 SLP193 T01060072
Loading
Personal Weather Stations






























Interactive Weather Map New forecast layout! Learn more

10-Day Weather Forecast

Advertisements
Track Severe Weather on mobile